Wetterstation Vordersexau
Wetterdaten: Woche 14.02.11 - 20.02.11 (KW7)
Datum Zeit Temp. A. Feuchte A. Luftdruck Regen Wind Richtung Taupunkt Windchill Windben
14.02.2011 00:00 2,3 C 88 % 1007,0 hPa 0,0 l/m 0,0 km/h SO 0,5 C 2,3 C 0,0 km/h
14.02.2011 01:00 2,4 C 88 % 1006,3 hPa 0,0 l/m 0,0 km/h NO 0,6 C 2,4 C 0,0 km/h
14.02.2011 02:00 2,4 C 88 % 1006,5 hPa 0,0 l/m 0,0 km/h NO 0,6 C 2,4 C 0,0 km/h
14.02.2011 03:00 2,3 C 87 % 1006,2 hPa 0,0 l/m 0,0 km/h O-SO 0,4 C 2,3 C 0,0 km/h
14.02.2011 04:00 2,2 C 87 % 1006,0 hPa 0,0 l/m 0,0 km/h SO 0,3 C 2,2 C 0,0 km/h
14.02.2011 05:00 1,7 C 88 % 1005,9 hPa 0,0 l/m 3,9 km/h NO -0,1 C 1,7 C 2,2 km/h
14.02.2011 06:00 2,1 C 87 % 1005,8 hPa 0,0 l/m 0,0 km/h O 0,2 C 2,1 C 0,0 km/h
14.02.2011 07:00 1,9 C 87 % 1005,8 hPa 0,0 l/m 0,0 km/h SO -0,0 C 1,9 C 0,0 km/h
14.02.2011 08:00 3,5 C 86 % 1006,4 hPa 0,0 l/m 7,1 km/h N 1,4 C 2,8 C 4,0 km/h
14.02.2011 09:00 7,1 C 86 % 1006,2 hPa 0,0 l/m 0,0 km/h N-NW 4,9 C 7,1 C 0,0 km/h
14.02.2011 10:00 9,4 C 83 % 1006,3 hPa 0,0 l/m 0,0 km/h W 6,7 C 9,4 C 0,0 km/h
14.02.2011 11:00 14,9 C 64 % 1005,9 hPa 0,0 l/m 0,0 km/h W 8,2 C 14,9 C 0,0 km/h
14.02.2011 12:00 14,4 C 63 % 1005,4 hPa 0,0 l/m 0,0 km/h W-SW 7,4 C 14,4 C 0,0 km/h
14.02.2011 13:00 14,5 C 63 % 1004,6 hPa 0,0 l/m 0,0 km/h W-SW 7,5 C 14,5 C 0,0 km/h
14.02.2011 14:00 16,4 C 57 % 1004,1 hPa 0,0 l/m 0,0 km/h NW 7,9 C 16,4 C 0,0 km/h
14.02.2011 15:00 15,8 C 55 % 1003,6 hPa 0,0 l/m 0,0 km/h W 6,8 C 15,8 C 0,0 km/h
14.02.2011 16:00 14,9 C 56 % 1003,2 hPa 0,0 l/m 0,0 km/h O-SO 6,2 C 14,9 C 0,0 km/h
14.02.2011 17:00 9,6 C 71 % 1002,9 hPa 0,0 l/m 0,0 km/h SO 4,6 C 9,6 C 0,0 km/h
14.02.2011 18:00 6,9 C 79 % 1002,6 hPa 0,0 l/m 0,0 km/h W-SW 3,5 C 6,9 C 0,0 km/h
14.02.2011 19:00 7,3 C 80 % 1003,4 hPa 0,0 l/m 0,0 km/h W 4,1 C 7,3 C 0,0 km/h
14.02.2011 20:00 7,4 C 82 % 1004,1 hPa 0,0 l/m 0,0 km/h S-SW 4,5 C 7,4 C 0,0 km/h
14.02.2011 21:00 6,6 C 85 % 1003,9 hPa 0,0 l/m 0,0 km/h S-SO 4,3 C 6,6 C 0,0 km/h
14.02.2011 22:00 5,9 C 87 % 1003,9 hPa 0,0 l/m 0,0 km/h S-SW 3,9 C 5,9 C 0,0 km/h
14.02.2011 23:00 7,6 C 85 % 1003,5 hPa 0,0 l/m 9,1 km/h S 5,2 C 5,5 C 5,0 km/h
15.02.2011 00:00 7,9 C 81 % 1003,3 hPa 0,0 l/m 23,3 km/h S 4,8 C -0,5 C 13,0 km/h
15.02.2011 01:00 7,6 C 81 % 1003,0 hPa 0,0 l/m 0,0 km/h W-NW 4,6 C 7,6 C 0,0 km/h
15.02.2011 02:00 7,4 C 82 % 1002,8 hPa 0,0 l/m 1,9 km/h W-SW 4,5 C 7,4 C 1,1 km/h
15.02.2011 03:00 6,9 C 82 % 1002,2 hPa 0,0 l/m 7,1 km/h W 4,0 C 6,3 C 4,0 km/h
15.02.2011 04:00 6,3 C 84 % 1001,9 hPa 0,0 l/m 0,0 km/h W-NW 3,8 C 6,3 C 0,0 km/h
15.02.2011 05:00 5,9 C 84 % 1001,5 hPa 0,0 l/m 0,0 km/h N-NW 3,4 C 5,9 C 0,0 km/h
15.02.2011 06:00 5,3 C 85 % 1000,8 hPa 0,0 l/m 0,0 km/h O-NO 3,0 C 5,3 C 0,0 km/h
15.02.2011 07:00 4,8 C 86 % 1000,7 hPa 0,0 l/m 0,0 km/h O-NO 2,7 C 4,8 C 0,0 km/h
15.02.2011 08:00 4,9 C 87 % 1000,8 hPa 0,0 l/m 0,0 km/h O-NO 2,9 C 4,9 C 0,0 km/h
15.02.2011 09:00 6,6 C 87 % 1000,0 hPa 0,0 l/m 0,0 km/h O-NO 4,6 C 6,6 C 0,0 km/h
15.02.2011 10:00 7,2 C 87 % 999,1 hPa 0,4 l/m 0,0 km/h NW 5,2 C 7,2 C 0,0 km/h
15.02.2011 11:00 6,8 C 87 % 999,6 hPa 0,0 l/m 0,0 km/h W 4,8 C 6,8 C 0,0 km/h
15.02.2011 12:00 6,4 C 87 % 1000,0 hPa 0,4 l/m 19,4 km/h S-SO 4,4 C -1,1 C 10,8 km/h
15.02.2011 13:00 8,1 C 86 % 999,4 hPa 0,4 l/m 0,0 km/h SW 5,9 C 8,1 C 0,0 km/h
15.02.2011 14:00 7,4 C 81 % 998,9 hPa 0,0 l/m 9,1 km/h S-SO 4,4 C 5,3 C 5,0 km/h
15.02.2011 15:00 6,8 C 85 % 998,9 hPa 0,0 l/m 26,6 km/h S 4,5 C -3,0 C 14,8 km/h
15.02.2011 16:00 6,8 C 84 % 998,5 hPa 0,0 l/m 0,0 km/h SO 4,3 C 6,8 C 0,0 km/h
15.02.2011 17:00 6,4 C 85 % 998,2 hPa 0,4 l/m 5,2 km/h S-SO 4,1 C 6,4 C 2,9 km/h
15.02.2011 18:00 7,1 C 81 % 998,5 hPa 0,0 l/m 19,4 km/h S-SO 4,1 C -0,2 C 10,8 km/h
15.02.2011 19:00 6,9 C 80 % 998,3 hPa 0,0 l/m 6,5 km/h S-SO 3,7 C 6,8 C 3,6 km/h
15.02.2011 20:00 6,9 C 81 % 998,5 hPa 0,0 l/m 12,3 km/h NO 3,9 C 2,8 C 6,8 km/h
15.02.2011 21:00 5,2 C 83 % 998,5 hPa 0,0 l/m 0,0 km/h SO 2,6 C 5,2 C 0,0 km/h
15.02.2011 22:00 3,4 C 87 % 998,7 hPa 0,0 l/m 0,0 km/h SO 1,4 C 3,4 C 0,0 km/h
15.02.2011 23:00 2,9 C 88 % 998,4 hPa 0,0 l/m 4,5 km/h SO 1,1 C 2,9 C 2,5 km/h
16.02.2011 00:00 2,6 C 88 % 998,8 hPa 0,0 l/m 9,7 km/h SO 0,8 C -0,3 C 5,4 km/h
16.02.2011 01:00 2,7 C 88 % 998,9 hPa 0,0 l/m 0,6 km/h O-NO 0,9 C 2,7 C 0,4 km/h
16.02.2011 02:00 1,1 C 88 % 998,9 hPa 0,0 l/m 0,0 km/h O-NO -0,7 C 1,1 C 0,0 km/h
16.02.2011 03:00 0,9 C 88 % 998,6 hPa 0,0 l/m 0,0 km/h SO -0,9 C 0,9 C 0,0 km/h
16.02.2011 04:00 0,8 C 88 % 998,2 hPa 0,0 l/m 0,0 km/h O-NO -1,0 C 0,8 C 0,0 km/h
16.02.2011 05:00 -0,1 C 88 % 998,5 hPa 0,0 l/m 0,0 km/h SO -1,8 C -0,1 C 0,0 km/h
16.02.2011 06:00 0,3 C 88 % 997,8 hPa 0,0 l/m 3,9 km/h SO -1,4 C 0,3 C 2,2 km/h
16.02.2011 07:00 0,4 C 87 % 997,8 hPa 0,0 l/m 0,0 km/h NO -1,5 C 0,4 C 0,0 km/h
16.02.2011 08:00 1,3 C 86 % 997,7 hPa 0,0 l/m 0,0 km/h SO -0,8 C 1,3 C 0,0 km/h
16.02.2011 09:00 5,6 C 88 % 997,7 hPa 0,0 l/m 0,0 km/h S-SO 3,8 C 5,6 C 0,0 km/h
16.02.2011 10:00 10,9 C 74 % 997,5 hPa 0,0 l/m 0,0 km/h W 6,5 C 10,9 C 0,0 km/h
16.02.2011 11:00 12,3 C 66 % 997,3 hPa 0,0 l/m 0,0 km/h N-NO 6,1 C 12,3 C 0,0 km/h
16.02.2011 12:00 10,9 C 71 % 997,0 hPa 0,0 l/m 0,0 km/h W 5,9 C 10,9 C 0,0 km/h
16.02.2011 13:00 11,4 C 70 % 996,2 hPa 0,0 l/m 2,6 km/h S-SW 6,1 C 11,4 C 1,4 km/h
16.02.2011 14:00 12,2 C 68 % 995,7 hPa 0,0 l/m 0,0 km/h S-SO 6,5 C 12,2 C 0,0 km/h
16.02.2011 15:00 10,8 C 74 % 995,3 hPa 0,0 l/m 1,3 km/h S-SO 6,4 C 10,8 C 0,7 km/h
16.02.2011 16:00 10,2 C 76 % 995,2 hPa 0,0 l/m 0,0 km/h SO 6,2 C 10,2 C 0,0 km/h
16.02.2011 17:00 8,4 C 78 % 995,3 hPa 0,0 l/m 0,0 km/h SO 4,8 C 8,4 C 0,0 km/h
16.02.2011 18:00 6,1 C 81 % 995,3 hPa 0,0 l/m 0,0 km/h SO 3,1 C 6,1 C 0,0 km/h
16.02.2011 19:00 4,9 C 84 % 995,4 hPa 0,0 l/m 3,9 km/h O-SO 2,4 C 4,9 C 2,2 km/h
16.02.2011 20:00 3,4 C 85 % 995,4 hPa 0,0 l/m 0,0 km/h O-SO 1,1 C 3,4 C 0,0 km/h
16.02.2011 21:00 1,9 C 87 % 995,6 hPa 0,0 l/m 0,0 km/h O -0,0 C 1,9 C 0,0 km/h
16.02.2011 22:00 1,1 C 88 % 995,9 hPa 0,0 l/m 0,0 km/h O-NO -0,7 C 1,1 C 0,0 km/h
16.02.2011 23:00 0,5 C 88 % 996,0 hPa 0,0 l/m 0,0 km/h O-NO -1,3 C 0,5 C 0,0 km/h
17.02.2011 00:00 -0,6 C 88 % 996,1 hPa 0,0 l/m 0,0 km/h O-NO -2,3 C -0,6 C 0,0 km/h
17.02.2011 01:00 0,8 C 88 % 996,2 hPa 0,0 l/m 0,0 km/h O-NO -1,0 C 0,8 C 0,0 km/h
17.02.2011 02:00 1,0 C 87 % 996,1 hPa 0,0 l/m 0,0 km/h O-NO -0,9 C 1,0 C 0,0 km/h
17.02.2011 03:00 1,4 C 87 % 996,1 hPa 0,0 l/m 0,0 km/h O-NO -0,5 C 1,4 C 0,0 km/h
17.02.2011 04:00 1,8 C 87 % 996,2 hPa 0,0 l/m 0,0 km/h O-NO -0,1 C 1,8 C 0,0 km/h
17.02.2011 05:00 2,1 C 87 % 996,7 hPa 0,0 l/m 0,0 km/h O-NO 0,2 C 2,1 C 0,0 km/h
17.02.2011 06:00 2,3 C 87 % 997,2 hPa 0,0 l/m 0,0 km/h O-NO 0,4 C 2,3 C 0,0 km/h
17.02.2011 07:00 2,3 C 86 % 997,5 hPa 0,0 l/m 0,0 km/h O-NO 0,2 C 2,3 C 0,0 km/h
17.02.2011 08:00 2,4 C 86 % 998,2 hPa 0,0 l/m 0,0 km/h O-NO 0,3 C 2,4 C 0,0 km/h
17.02.2011 09:00 3,3 C 87 % 998,5 hPa 0,0 l/m 0,0 km/h N-NW 1,3 C 3,3 C 0,0 km/h
17.02.2011 10:00 4,3 C 88 % 999,1 hPa 0,0 l/m 0,0 km/h NW 2,5 C 4,3 C 0,0 km/h
17.02.2011 11:00 6,3 C 86 % 999,6 hPa 0,0 l/m 0,0 km/h N 4,1 C 6,3 C 0,0 km/h
17.02.2011 12:00 6,9 C 80 % 999,7 hPa 0,0 l/m 0,0 km/h W-NW 3,7 C 6,9 C 0,0 km/h
17.02.2011 13:00 7,9 C 77 % 999,7 hPa 0,0 l/m 0,0 km/h N-NW 4,1 C 7,9 C 0,0 km/h
17.02.2011 14:00 7,6 C 78 % 1000,0 hPa 0,0 l/m 2,6 km/h W-NW 4,0 C 7,6 C 1,4 km/h
17.02.2011 15:00 7,0 C 79 % 1000,1 hPa 0,0 l/m 0,0 km/h NW 3,6 C 7,0 C 0,0 km/h
17.02.2011 16:00 6,1 C 81 % 1000,7 hPa 0,0 l/m 2,6 km/h N-NW 3,1 C 6,1 C 1,4 km/h
17.02.2011 17:00 5,5 C 82 % 1001,1 hPa 0,0 l/m 0,0 km/h W-NW 2,7 C 5,5 C 0,0 km/h
17.02.2011 18:00 5,0 C 85 % 1001,8 hPa 0,0 l/m 0,0 km/h W-NW 2,7 C 5,0 C 0,0 km/h
17.02.2011 19:00 4,8 C 84 % 1002,9 hPa 0,0 l/m 0,0 km/h W-SW 2,3 C 4,8 C 0,0 km/h
17.02.2011 20:00 4,4 C 85 % 1003,6 hPa 0,0 l/m 0,0 km/h W 2,1 C 4,4 C 0,0 km/h
17.02.2011 21:00 4,3 C 85 % 1004,3 hPa 0,0 l/m 0,0 km/h W 2,0 C 4,3 C 0,0 km/h
17.02.2011 22:00 4,1 C 86 % 1004,8 hPa 0,0 l/m 0,0 km/h W 2,0 C 4,1 C 0,0 km/h
17.02.2011 23:00 3,9 C 87 % 1005,1 hPa 0,0 l/m 0,0 km/h W 1,9 C 3,9 C 0,0 km/h
18.02.2011 00:00 3,8 C 87 % 1005,8 hPa 0,0 l/m 0,0 km/h W 1,8 C 3,8 C 0,0 km/h
18.02.2011 01:00 3,6 C 87 % 1005,8 hPa 0,0 l/m 0,0 km/h W 1,6 C 3,6 C 0,0 km/h
18.02.2011 02:00 3,6 C 88 % 1006,4 hPa 0,0 l/m 0,0 km/h W 1,8 C 3,6 C 0,0 km/h
18.02.2011 03:00 3,4 C 88 % 1006,7 hPa 0,0 l/m 0,0 km/h W 1,6 C 3,4 C 0,0 km/h
18.02.2011 04:00 3,3 C 88 % 1006,9 hPa 0,0 l/m 0,0 km/h W 1,5 C 3,3 C 0,0 km/h
18.02.2011 05:00 3,3 C 88 % 1007,6 hPa 0,0 l/m 0,0 km/h W 1,5 C 3,3 C 0,0 km/h
18.02.2011 06:00 3,2 C 88 % 1008,3 hPa 0,0 l/m 0,0 km/h W 1,4 C 3,2 C 0,0 km/h
18.02.2011 07:00 3,1 C 88 % 1008,9 hPa 0,0 l/m 0,0 km/h W-SW 1,3 C 3,1 C 0,0 km/h
18.02.2011 08:00 3,2 C 88 % 1009,6 hPa 0,0 l/m 0,0 km/h W-SW 1,4 C 3,2 C 0,0 km/h
18.02.2011 09:00 3,8 C 87 % 1010,1 hPa 0,0 l/m 0,0 km/h W-SW 1,8 C 3,8 C 0,0 km/h
18.02.2011 10:00 4,1 C 87 % 1010,4 hPa 0,0 l/m 0,0 km/h W 2,1 C 4,1 C 0,0 km/h
18.02.2011 11:00 4,6 C 86 % 1011,0 hPa 0,0 l/m 0,0 km/h W-NW 2,5 C 4,6 C 0,0 km/h
18.02.2011 12:00 5,2 C 84 % 1011,5 hPa 0,0 l/m 0,0 km/h W 2,7 C 5,2 C 0,0 km/h
18.02.2011 13:00 5,3 C 83 % 1011,9 hPa 0,0 l/m 0,6 km/h W 2,7 C 5,3 C 0,4 km/h
18.02.2011 14:00 5,5 C 81 % 1011,7 hPa 0,0 l/m 0,0 km/h W 2,5 C 5,5 C 0,0 km/h
18.02.2011 15:00 5,4 C 81 % 1012,2 hPa 0,0 l/m 0,0 km/h W-NW 2,4 C 5,4 C 0,0 km/h
18.02.2011 16:00 4,9 C 82 % 1012,3 hPa 0,0 l/m 0,0 km/h W-NW 2,1 C 4,9 C 0,0 km/h
18.02.2011 17:00 4,3 C 83 % 1012,8 hPa 0,0 l/m 0,0 km/h W-NW 1,7 C 4,3 C 0,0 km/h
18.02.2011 18:00 3,9 C 84 % 1013,2 hPa 0,0 l/m 0,0 km/h N 1,4 C 3,9 C 0,0 km/h
18.02.2011 19:00 3,9 C 85 % 1013,8 hPa 0,0 l/m 0,0 km/h N 1,6 C 3,9 C 0,0 km/h
18.02.2011 20:00 3,5 C 86 % 1013,7 hPa 0,0 l/m 0,0 km/h N-NO 1,4 C 3,5 C 0,0 km/h
18.02.2011 21:00 3,5 C 87 % 1013,8 hPa 0,0 l/m 0,0 km/h NW 1,5 C 3,5 C 0,0 km/h
18.02.2011 22:00 3,3 C 87 % 1014,0 hPa 0,0 l/m 0,0 km/h NW 1,3 C 3,3 C 0,0 km/h
18.02.2011 23:00 3,0 C 88 % 1013,9 hPa 0,0 l/m 0,0 km/h NW 1,2 C 3,0 C 0,0 km/h
19.02.2011 00:00 3,0 C 88 % 1014,4 hPa 0,0 l/m 0,0 km/h NW 1,2 C 3,0 C 0,0 km/h
19.02.2011 01:00 2,9 C 88 % 1014,2 hPa 0,0 l/m 0,0 km/h NW 1,1 C 2,9 C 0,0 km/h
19.02.2011 02:00 2,8 C 89 % 1013,8 hPa 0,0 l/m 0,0 km/h NW 1,2 C 2,8 C 0,0 km/h
19.02.2011 03:00 2,8 C 89 % 1013,5 hPa 0,0 l/m 0,0 km/h NW 1,2 C 2,8 C 0,0 km/h
19.02.2011 04:00 2,8 C 89 % 1013,4 hPa 0,0 l/m 0,0 km/h NW 1,2 C 2,8 C 0,0 km/h
19.02.2011 05:00 2,8 C 89 % 1013,7 hPa 0,0 l/m 0,0 km/h NW 1,2 C 2,8 C 0,0 km/h
19.02.2011 06:00 2,6 C 88 % 1013,6 hPa 0,0 l/m 0,0 km/h NW 0,8 C 2,6 C 0,0 km/h
19.02.2011 07:00 2,5 C 88 % 1013,7 hPa 0,0 l/m 0,0 km/h NW 0,7 C 2,5 C 0,0 km/h
19.02.2011 08:00 2,9 C 88 % 1014,0 hPa 0,0 l/m 0,0 km/h N-NW 1,1 C 2,9 C 0,0 km/h
19.02.2011 09:00 4,4 C 88 % 1013,9 hPa 0,0 l/m 0,0 km/h O-SO 2,6 C 4,4 C 0,0 km/h
19.02.2011 10:00 6,6 C 80 % 1013,8 hPa 0,0 l/m 0,0 km/h O-SO 3,4 C 6,6 C 0,0 km/h
19.02.2011 11:00 11,9 C 64 % 1013,7 hPa 0,0 l/m 0,0 km/h W-NW 5,3 C 11,9 C 0,0 km/h
19.02.2011 12:00 10,9 C 59 % 1013,1 hPa 0,0 l/m 1,3 km/h SW 3,2 C 10,9 C 0,7 km/h
19.02.2011 13:00 9,8 C 59 % 1012,3 hPa 0,0 l/m 0,0 km/h W-NW 2,2 C 9,8 C 0,0 km/h
19.02.2011 14:00 9,1 C 63 % 1011,9 hPa 0,0 l/m 10,4 km/h W-NW 2,4 C 6,4 C 5,8 km/h
19.02.2011 15:00 8,5 C 64 % 1011,6 hPa 0,0 l/m 7,1 km/h NW 2,1 C 8,0 C 4,0 km/h
19.02.2011 16:00 7,3 C 70 % 1011,7 hPa 0,0 l/m 0,0 km/h NW 2,2 C 7,3 C 0,0 km/h
19.02.2011 17:00 6,1 C 74 % 1011,7 hPa 0,0 l/m 0,0 km/h N-NW 1,8 C 6,1 C 0,0 km/h
19.02.2011 18:00 4,2 C 79 % 1011,8 hPa 0,0 l/m 0,0 km/h N-NW 0,9 C 4,2 C 0,0 km/h
19.02.2011 19:00 3,3 C 83 % 1011,7 hPa 0,0 l/m 0,0 km/h N-NW 0,7 C 3,3 C 0,0 km/h
19.02.2011 20:00 2,6 C 85 % 1011,2 hPa 0,0 l/m 0,0 km/h N 0,3 C 2,6 C 0,0 km/h
19.02.2011 21:00 2,1 C 87 % 1011,3 hPa 0,0 l/m 0,0 km/h NO 0,2 C 2,1 C 0,0 km/h
19.02.2011 22:00 1,8 C 88 % 1011,1 hPa 0,0 l/m 0,0 km/h NW 0,0 C 1,8 C 0,0 km/h
19.02.2011 23:00 2,3 C 88 % 1011,0 hPa 0,0 l/m 0,0 km/h O 0,5 C 2,3 C 0,0 km/h
20.02.2011 00:00 2,4 C 88 % 1010,7 hPa 0,0 l/m 0,0 km/h O 0,6 C 2,4 C 0,0 km/h
20.02.2011 01:00 2,3 C 88 % 1010,9 hPa 0,0 l/m 0,0 km/h O-SO 0,5 C 2,3 C 0,0 km/h
20.02.2011 02:00 1,9 C 88 % 1011,1 hPa 0,0 l/m 0,0 km/h O-NO 0,1 C 1,9 C 0,0 km/h
20.02.2011 03:00 2,3 C 88 % 1010,9 hPa 0,0 l/m 0,0 km/h N 0,5 C 2,3 C 0,0 km/h
20.02.2011 04:00 2,7 C 88 % 1010,4 hPa 0,0 l/m 0,0 km/h N 0,9 C 2,7 C 0,0 km/h
20.02.2011 05:00 2,6 C 88 % 1010,3 hPa 0,4 l/m 0,0 km/h NW 0,8 C 2,6 C 0,0 km/h
20.02.2011 06:00 2,6 C 88 % 1009,9 hPa 0,0 l/m 0,0 km/h W 0,8 C 2,6 C 0,0 km/h
20.02.2011 07:00 2,4 C 87 % 1010,1 hPa 0,0 l/m 0,0 km/h W-NW 0,5 C 2,4 C 0,0 km/h
20.02.2011 08:00 2,6 C 87 % 1010,3 hPa 0,4 l/m 0,0 km/h NW 0,7 C 2,6 C 0,0 km/h
20.02.2011 09:00 3,5 C 86 % 1010,2 hPa 0,0 l/m 0,6 km/h N-NW 1,4 C 3,5 C 0,4 km/h
20.02.2011 10:00 3,8 C 88 % 1010,0 hPa 0,4 l/m 0,0 km/h NW 2,0 C 3,8 C 0,0 km/h
20.02.2011 11:00 3,9 C 88 % 1010,1 hPa 0,4 l/m 1,9 km/h W 2,1 C 3,9 C 1,1 km/h
20.02.2011 12:00 3,9 C 88 % 1010,1 hPa 0,4 l/m 0,0 km/h W 2,1 C 3,9 C 0,0 km/h
20.02.2011 13:00 3,4 C 88 % 1010,3 hPa 0,0 l/m 0,0 km/h NW 1,6 C 3,4 C 0,0 km/h
20.02.2011 14:00 3,2 C 88 % 1010,4 hPa 0,7 l/m 1,3 km/h W-NW 1,4 C 3,2 C 0,7 km/h
20.02.2011 15:00 2,8 C 88 % 1010,6 hPa 0,7 l/m 1,3 km/h W-SW 1,0 C 2,8 C 0,7 km/h
20.02.2011 16:00 2,0 C 88 % 1011,1 hPa 0,7 l/m 0,6 km/h SW 0,2 C 2,0 C 0,4 km/h
20.02.2011 17:00 2,1 C 88 % 1011,3 hPa 0,0 l/m 0,0 km/h S-SW 0,3 C 2,1 C 0,0 km/h
20.02.2011 18:00 2,2 C 87 % 1011,8 hPa 0,0 l/m 0,0 km/h SW 0,3 C 2,2 C 0,0 km/h
20.02.2011 19:00 2,2 C 87 % 1012,4 hPa 0,0 l/m 0,0 km/h SW 0,3 C 2,2 C 0,0 km/h
20.02.2011 20:00 2,2 C 87 % 1012,3 hPa 0,0 l/m 0,0 km/h W-NW 0,3 C 2,2 C 0,0 km/h
20.02.2011 21:00 1,9 C 87 % 1012,4 hPa 0,4 l/m 5,8 km/h W -0,0 C 1,9 C 3,2 km/h
20.02.2011 22:00 1,2 C 87 % 1012,6 hPa 0,4 l/m 0,0 km/h W -0,7 C 1,2 C 0,0 km/h
20.02.2011 23:00 0,8 C 87 % 1012,9 hPa 0,0 l/m 0,0 km/h W -1,1 C 0,8 C 0,0 km/h
Min-Datum _ 17.02.11 14.02.11 16.02.11 - 14.02.11 - 17.02.11 15.02.11 14.02.11
_ Min-Zeit 00:30 15:30 16:30 - 00:30 - 00:30 15:30 00:30
Minimum _ -0,6 C 55 % 995,2 hPa - 0,0 km/h - -2,3 C -3,0 C 0,0 km/h
Max-Datum _ 14.02.11 19.02.11 19.02.11 20.02.11 15.02.11 - 14.02.11 14.02.11 15.02.11
_ Max-Zeit 14:30 02:30 00:30 14:30 15:30 - 11:30 14:30 15:30
Maximum _ 16,4 C 89 % 1014,4 hPa 0,7 l/m 26,6 km/h
S
- 8,2 C 16,4 C 14,8 km/h
S
Durchschnitt _ 4,9 C 83 % 1005,1 hPa #6,1 l/m 1,3 km/h W 2,2 C 4,6 C 0,7 km/h
www.sexauwetter.de